Time;durP1;ratioP1;P1;durP2;ratioP2;P2;SDS_P1;SDS_P2;PMS_P1;PMS_P2;Temp;Humidity;BMP_temperature;BMP_pressure;BME280_temperature;BME280_humidity;BME280_pressure;Samples;Min_cycle;Max_cycle;Signal;HPM_P1;HPM_P2
2021/03/14 00:01:34;;;;;;;3.27;2.00;;;;;;;;;;5112312;28;20201;-42
2021/03/14 00:03:59;;;;;;;2.17;1.63;;;;;;;;;;5111804;28;20250;-43
2021/03/14 00:06:24;;;;;;;4.65;2.20;;;;;;;;;;5112339;28;20579;-42
2021/03/14 00:08:49;;;;;;;2.57;1.70;;;;;;;;;;5111668;28;20676;-43
2021/03/14 00:11:14;;;;;;;1.97;1.77;;;;;;;;;;5112098;27;20180;-43
2021/03/14 00:13:40;;;;;;;2.08;1.60;;;;;;;;;;5112074;28;20230;-43
2021/03/14 00:16:06;;;;;;;4.37;1.90;;;;;;;;;;5112349;28;20175;-43
2021/03/14 00:18:33;;;;;;;2.00;1.50;;;;;;;;;;5111644;28;20183;-42
2021/03/14 00:20:58;;;;;;;3.33;1.93;;;;;;;;;;5111426;28;20633;-43
2021/03/14 00:23:23;;;;;;;2.50;1.63;;;;;;;;;;5111833;28;20635;-42
2021/03/14 00:25:48;;;;;;;3.57;1.70;;;;;;;;;;5112267;28;20254;-42
2021/03/14 00:28:16;;;;;;;2.27;1.63;;;;;;;;;;5113164;27;20181;-43
2021/03/14 00:30:41;;;;;;;3.77;1.63;;;;;;;;;;5109564;27;20199;-43
2021/03/14 00:33:06;;;;;;;2.40;1.90;;;;;;;;;;5110963;28;20727;-43
2021/03/14 00:35:31;;;;;;;3.13;1.77;;;;;;;;;;5111835;28;20263;-42
2021/03/14 00:37:57;;;;;;;1.73;1.63;;;;;;;;;;5111834;28;20178;-41
2021/03/14 00:40:24;;;;;;;2.07;1.87;;;;;;;;;;5111245;28;20247;-42
2021/03/14 00:42:51;;;;;;;3.20;1.87;;;;;;;;;;5110953;28;20197;-42
2021/03/14 00:45:16;;;;;;;2.40;2.20;;;;;;;;;;5111325;28;20585;-42
2021/03/14 00:47:41;;;;;;;3.63;2.13;;;;;;;;;;5111810;28;21075;-42
2021/03/14 00:50:07;;;;;;;3.13;2.00;;;;;;;;;;5111996;28;20276;-42
2021/03/14 00:52:33;;;;;;;2.53;1.93;;;;;;;;;;5109163;28;20663;-42
2021/03/14 00:54:58;;;;;;;3.23;1.90;;;;;;;;;;5111660;28;20276;-42
2021/03/14 00:57:23;;;;;;;2.13;1.83;;;;;;;;;;5111221;28;20169;-43
2021/03/14 00:59:48;;;;;;;2.75;1.67;;;;;;;;;;5111672;28;20166;-42
2021/03/14 01:02:13;;;;;;;3.92;2.22;;;;;;;;;;5110679;28;20264;-43
2021/03/14 01:04:38;;;;;;;2.10;2.00;;;;;;;;;;5111155;28;20170;-42
2021/03/14 01:07:03;;;;;;;2.33;2.03;;;;;;;;;;5111226;28;20635;-42
2021/03/14 01:09:29;;;;;;;4.07;1.90;;;;;;;;;;5110243;28;20259;-42
2021/03/14 01:11:54;;;;;;;4.03;2.30;;;;;;;;;;5110366;28;20241;-42
2021/03/14 01:14:19;;;;;;;4.30;2.20;;;;;;;;;;5111584;28;20179;-42
2021/03/14 01:16:44;;;;;;;3.77;2.20;;;;;;;;;;5110723;28;20308;-42
2021/03/14 01:19:09;;;;;;;1.90;1.67;;;;;;;;;;5110935;28;20205;-43
2021/03/14 01:21:34;;;;;;;3.07;1.80;;;;;;;;;;5111117;27;20196;-43
2021/03/14 01:24:00;;;;;;;6.23;2.20;;;;;;;;;;5110563;28;20218;-43
2021/03/14 01:26:25;;;;;;;2.93;1.83;;;;;;;;;;5110532;28;20188;-43
2021/03/14 01:28:50;;;;;;;5.47;2.20;;;;;;;;;;5111172;28;20163;-43
2021/03/14 01:31:16;;;;;;;2.47;1.90;;;;;;;;;;5110358;28;20651;-43
2021/03/14 01:33:41;;;;;;;5.70;2.43;;;;;;;;;;5110194;28;20250;-42
2021/03/14 01:36:07;;;;;;;2.03;1.83;;;;;;;;;;5110434;28;20205;-42
2021/03/14 01:38:32;;;;;;;3.00;2.20;;;;;;;;;;5111052;28;20227;-42
2021/03/14 01:40:57;;;;;;;3.30;1.80;;;;;;;;;;5110431;28;20205;-42
2021/03/14 01:43:22;;;;;;;2.73;2.53;;;;;;;;;;5110185;28;20389;-42
2021/03/14 01:45:47;;;;;;;3.03;2.07;;;;;;;;;;5110470;28;20577;-43
2021/03/14 01:48:16;;;;;;;2.53;2.10;;;;;;;;;;5109676;28;20510;-43
2021/03/14 01:50:42;;;;;;;2.73;1.87;;;;;;;;;;5110552;28;20538;-43
2021/03/14 01:53:07;;;;;;;3.67;2.07;;;;;;;;;;5109497;28;20595;-43
2021/03/14 01:55:32;;;;;;;4.73;1.80;;;;;;;;;;5110036;28;20239;-42
2021/03/14 01:57:57;;;;;;;3.47;2.10;;;;;;;;;;5110093;28;20174;-42
2021/03/14 02:00:23;;;;;;;2.33;1.90;;;;;;;;;;5109515;28;20284;-42
2021/03/14 02:02:48;;;;;;;2.20;2.00;;;;;;;;;;5108526;28;20663;-43
2021/03/14 02:05:15;;;;;;;4.30;2.30;;;;;;;;;;5109921;28;20624;-41
2021/03/14 02:07:41;;;;;;;4.30;2.23;;;;;;;;;;5110462;28;20265;-42
2021/03/14 02:10:07;;;;;;;4.13;2.00;;;;;;;;;;5109557;28;20698;-48
2021/03/14 02:12:35;;;;;;;3.80;2.17;;;;;;;;;;5110948;27;20664;-43
2021/03/14 02:15:01;;;;;;;2.33;2.10;;;;;;;;;;5109488;28;21395;-42
2021/03/14 02:17:29;;;;;;;3.37;2.20;;;;;;;;;;5109199;28;21141;-42
2021/03/14 02:20:17;;;;;;;1.97;1.60;;;;;;;;;;5108876;28;20609;-42
2021/03/14 02:22:43;;;;;;;5.80;2.27;;;;;;;;;;5108776;28;20675;-42
2021/03/14 02:25:30;;;;;;;7.17;2.10;;;;;;;;;;5109524;28;20599;-42
2021/03/14 02:27:55;;;;;;;2.00;1.80;;;;;;;;;;5109235;28;20584;-43
2021/03/14 02:30:21;;;;;;;1.77;1.67;;;;;;;;;;5109668;28;20969;-43
2021/03/14 02:32:47;;;;;;;3.63;2.23;;;;;;;;;;5108466;28;20223;-43
2021/03/14 02:35:12;;;;;;;4.20;2.20;;;;;;;;;;5109688;28;20207;-43
2021/03/14 02:37:38;;;;;;;3.73;2.27;;;;;;;;;;5108849;28;20203;-43
2021/03/14 02:40:05;;;;;;;1.60;1.50;;;;;;;;;;5108890;28;20202;-43
2021/03/14 02:42:30;;;;;;;2.10;1.90;;;;;;;;;;5107964;28;20636;-43
2021/03/14 02:44:56;;;;;;;2.27;2.03;;;;;;;;;;5109475;28;20623;-42
2021/03/14 02:47:22;;;;;;;2.70;1.87;;;;;;;;;;5108872;28;20170;-43
2021/03/14 02:49:51;;;;;;;3.30;1.80;;;;;;;;;;5108030;28;20677;-43
2021/03/14 02:52:18;;;;;;;3.20;2.20;;;;;;;;;;5109332;28;20595;-42
2021/03/14 02:54:45;;;;;;;2.10;1.93;;;;;;;;;;5108519;28;20647;-43
2021/03/14 02:57:12;;;;;;;2.27;2.07;;;;;;;;;;5108657;28;21176;-43
2021/03/14 02:59:39;;;;;;;3.50;1.93;;;;;;;;;;5109348;28;20595;-43
2021/03/14 03:02:04;;;;;;;4.17;1.83;;;;;;;;;;5108124;28;20653;-42
2021/03/14 03:04:29;;;;;;;1.90;1.70;;;;;;;;;;5108937;28;20596;-42
2021/03/14 03:06:55;;;;;;;3.03;2.27;;;;;;;;;;5107842;28;20219;-43
2021/03/14 03:09:21;;;;;;;3.27;1.97;;;;;;;;;;5108967;28;20185;-42
2021/03/14 03:11:50;;;;;;;4.33;2.07;;;;;;;;;;5108424;28;21141;-42
2021/03/14 03:14:16;;;;;;;1.90;1.80;;;;;;;;;;5108835;28;20178;-42
2021/03/14 03:16:42;;;;;;;1.90;1.73;;;;;;;;;;5108441;28;20734;-42
2021/03/14 03:19:10;;;;;;;4.53;2.30;;;;;;;;;;5106256;28;20637;-42
2021/03/14 03:21:36;;;;;;;2.50;2.23;;;;;;;;;;5108823;28;21220;-42
2021/03/14 03:24:01;;;;;;;2.13;1.83;;;;;;;;;;5108431;28;20598;-43
2021/03/14 03:26:26;;;;;;;2.97;2.30;;;;;;;;;;5108265;28;20231;-43
2021/03/14 03:28:51;;;;;;;3.43;2.43;;;;;;;;;;5109013;28;20184;-42
2021/03/14 03:31:16;;;;;;;3.30;2.27;;;;;;;;;;5109056;28;20278;-42
2021/03/14 03:33:42;;;;;;;2.73;2.53;;;;;;;;;;5113227;28;20223;-42
2021/03/14 03:36:07;;;;;;;2.53;2.30;;;;;;;;;;5111338;28;20166;-43
2021/03/14 03:38:33;;;;;;;2.07;1.90;;;;;;;;;;5113085;28;20170;-42
2021/03/14 03:40:58;;;;;;;4.80;2.80;;;;;;;;;;5112794;28;20430;-42
2021/03/14 03:43:34;;;;;;;2.90;2.37;;;;;;;;;;5112655;28;20741;-42
2021/03/14 03:46:01;;;;;;;2.90;2.07;;;;;;;;;;5112253;28;20620;-42
2021/03/14 03:48:30;;;;;;;2.20;2.00;;;;;;;;;;5110503;28;20604;-43
2021/03/14 03:50:56;;;;;;;4.47;2.50;;;;;;;;;;5112271;28;21035;-42
2021/03/14 03:53:22;;;;;;;2.40;2.20;;;;;;;;;;5112494;28;20593;-43
2021/03/14 03:55:49;;;;;;;5.20;2.30;;;;;;;;;;5112048;28;20617;-43
2021/03/14 03:58:14;;;;;;;5.00;2.03;;;;;;;;;;5111826;28;20675;-41
2021/03/14 04:00:39;;;;;;;5.83;2.60;;;;;;;;;;5112407;28;20598;-42
2021/03/14 04:03:05;;;;;;;2.47;2.27;;;;;;;;;;5112170;28;20311;-43
2021/03/14 04:05:30;;;;;;;2.30;2.10;;;;;;;;;;5112504;28;20759;-42
2021/03/14 04:07:56;;;;;;;2.40;2.00;;;;;;;;;;5111349;27;20190;-43
2021/03/14 04:10:22;;;;;;;3.60;2.07;;;;;;;;;;5112221;28;20173;-43
2021/03/14 04:12:48;;;;;;;1.73;1.63;;;;;;;;;;5112146;28;20246;-43
2021/03/14 04:15:15;;;;;;;2.67;2.10;;;;;;;;;;5111565;28;20628;-43
2021/03/14 04:17:41;;;;;;;3.60;2.17;;;;;;;;;;5111649;28;20613;-42
2021/03/14 04:20:08;;;;;;;1.67;1.57;;;;;;;;;;5111713;28;20708;-42
2021/03/14 04:22:33;;;;;;;2.00;1.90;;;;;;;;;;5111065;28;20739;-42
2021/03/14 04:25:00;;;;;;;3.83;2.07;;;;;;;;;;5112138;28;20670;-42
2021/03/14 04:27:26;;;;;;;2.30;2.00;;;;;;;;;;5111185;28;20228;-42
2021/03/14 04:29:52;;;;;;;4.23;2.33;;;;;;;;;;5108283;28;20992;-42
2021/03/14 04:32:18;;;;;;;2.27;1.80;;;;;;;;;;5109727;28;20791;-41
2021/03/14 04:34:44;;;;;;;4.20;2.47;;;;;;;;;;5108997;27;20204;-41
2021/03/14 04:37:09;;;;;;;2.20;2.10;;;;;;;;;;5114042;27;21124;-43
2021/03/14 04:39:35;;;;;;;2.30;2.10;;;;;;;;;;5112343;27;20643;-42
2021/03/14 04:42:01;;;;;;;3.17;2.43;;;;;;;;;;5110875;28;20207;-42
2021/03/14 04:44:27;;;;;;;2.87;2.33;;;;;;;;;;5110480;27;20646;-42
2021/03/14 04:46:53;;;;;;;3.70;2.20;;;;;;;;;;5111610;27;20641;-42
2021/03/14 04:49:18;;;;;;;2.30;2.10;;;;;;;;;;5110843;27;20619;-42
2021/03/14 04:51:44;;;;;;;4.03;2.13;;;;;;;;;;5111218;28;20239;-43
2021/03/14 04:54:10;;;;;;;6.80;2.40;;;;;;;;;;5110438;28;20560;-41
2021/03/14 04:56:36;;;;;;;2.80;2.60;;;;;;;;;;5110478;28;20641;-43
2021/03/14 04:59:02;;;;;;;3.77;2.77;;;;;;;;;;5110987;28;20224;-43
2021/03/14 05:01:27;;;;;;;3.93;2.23;;;;;;;;;;5110437;28;20648;-43
2021/03/14 05:03:53;;;;;;;5.67;2.80;;;;;;;;;;5111011;28;20172;-42
2021/03/14 05:06:19;;;;;;;3.73;2.40;;;;;;;;;;5110388;28;20177;-43
2021/03/14 05:08:45;;;;;;;2.53;2.00;;;;;;;;;;5110803;27;21204;-44
2021/03/14 05:11:13;;;;;;;2.67;2.17;;;;;;;;;;5110918;28;20207;-43
2021/03/14 05:13:39;;;;;;;2.87;2.67;;;;;;;;;;5092315;28;21000;-44
2021/03/14 05:16:04;;;;;;;2.57;2.47;;;;;;;;;;5116538;27;20606;-44
2021/03/14 05:18:30;;;;;;;4.17;2.10;;;;;;;;;;5111002;28;20170;-43
2021/03/14 05:20:55;;;;;;;3.37;2.90;;;;;;;;;;5110241;28;20174;-43
2021/03/14 05:23:21;;;;;;;2.70;2.47;;;;;;;;;;5110964;28;20232;-43
2021/03/14 05:25:46;;;;;;;3.30;2.70;;;;;;;;;;5111201;28;20317;-43
2021/03/14 05:28:13;;;;;;;3.17;2.60;;;;;;;;;;5106026;28;20841;-43
2021/03/14 05:30:38;;;;;;;2.73;2.40;;;;;;;;;;5107568;28;20711;-42
2021/03/14 05:33:03;;;;;;;2.87;2.67;;;;;;;;;;5109667;28;20631;-43
2021/03/14 05:35:30;;;;;;;4.83;3.00;;;;;;;;;;5110253;28;20256;-43
2021/03/14 05:37:56;;;;;;;2.60;2.40;;;;;;;;;;5110245;28;20170;-42
2021/03/14 05:40:23;;;;;;;5.23;2.73;;;;;;;;;;5110401;28;20633;-42
2021/03/14 05:42:49;;;;;;;2.73;2.53;;;;;;;;;;5110476;28;20557;-42
2021/03/14 05:45:15;;;;;;;2.87;2.40;;;;;;;;;;5109702;28;20611;-43
2021/03/14 05:47:40;;;;;;;3.33;2.57;;;;;;;;;;5110623;28;20286;-43
2021/03/14 05:50:07;;;;;;;3.57;3.27;;;;;;;;;;5110417;28;20605;-42
2021/03/14 05:52:33;;;;;;;3.90;2.87;;;;;;;;;;5110243;28;20209;-43
2021/03/14 05:54:59;;;;;;;4.00;2.60;;;;;;;;;;5109624;28;20692;-43
2021/03/14 05:57:24;;;;;;;3.57;3.27;;;;;;;;;;5108970;28;21028;-43
2021/03/14 05:59:51;;;;;;;3.53;3.27;;;;;;;;;;5110696;28;20166;-43
2021/03/14 06:02:19;;;;;;;2.97;2.60;;;;;;;;;;5109564;28;20205;-42
2021/03/14 06:04:48;;;;;;;3.17;2.97;;;;;;;;;;5109725;28;20601;-43
2021/03/14 06:07:13;;;;;;;3.00;2.80;;;;;;;;;;5109085;28;20603;-43
2021/03/14 06:09:39;;;;;;;4.63;3.40;;;;;;;;;;5109871;27;20611;-44
2021/03/14 06:12:07;;;;;;;3.33;3.03;;;;;;;;;;5109495;28;20182;-42
2021/03/14 06:14:33;;;;;;;2.80;2.60;;;;;;;;;;5110006;28;20270;-42
2021/03/14 06:16:59;;;;;;;2.33;2.20;;;;;;;;;;5107768;28;20644;-43
2021/03/14 06:19:24;;;;;;;3.10;2.90;;;;;;;;;;5109817;28;20181;-43
2021/03/14 06:21:49;;;;;;;3.20;3.00;;;;;;;;;;5107673;28;21267;-42
2021/03/14 06:24:14;;;;;;;3.90;2.53;;;;;;;;;;5108827;28;20187;-42
2021/03/14 06:26:43;;;;;;;4.95;2.72;;;;;;;;;;5109638;28;20180;-42
2021/03/14 06:29:14;;;;;;;2.67;2.47;;;;;;;;;;5109620;28;20173;-42
2021/03/14 06:31:43;;;;;;;3.53;2.70;;;;;;;;;;5109836;28;20592;-42
2021/03/14 06:34:24;;;;;;;2.87;2.60;;;;;;;;;;5108965;28;21224;-43
2021/03/14 06:36:49;;;;;;;4.70;2.50;;;;;;;;;;5107083;28;20627;-42
2021/03/14 06:39:20;;;;;;;3.27;2.97;;;;;;;;;;5108968;28;20630;-42
2021/03/14 06:41:45;;;;;;;4.07;3.07;;;;;;;;;;5107009;28;20663;-43
2021/03/14 06:44:20;;;;;;;3.58;2.38;;;;;;;;;;5109133;28;20700;-42
2021/03/14 06:46:45;;;;;;;3.13;2.87;;;;;;;;;;5107771;28;20166;-42
2021/03/14 06:49:10;;;;;;;2.70;2.50;;;;;;;;;;5109124;27;20664;-42
2021/03/14 06:51:38;;;;;;;2.53;2.43;;;;;;;;;;5108464;28;20547;-43
2021/03/14 06:54:21;;;;;;;3.00;2.80;;;;;;;;;;5108138;28;20724;-43
2021/03/14 06:57:05;;;;;;;3.00;2.70;;;;;;;;;;5105682;28;20607;-42
2021/03/14 06:59:31;;;;;;;4.23;3.10;;;;;;;;;;5108787;28;20638;-42
2021/03/14 07:02:01;;;;;;;4.03;2.40;;;;;;;;;;5110539;27;20663;-40
2021/03/14 07:04:44;;;;;;;2.77;2.57;;;;;;;;;;5108744;28;20576;-44
2021/03/14 07:07:17;;;;;;;3.07;2.80;;;;;;;;;;5103377;28;20710;-43
2021/03/14 07:09:43;;;;;;;4.90;3.40;;;;;;;;;;5108530;28;20672;-41
2021/03/14 07:12:16;;;;;;;4.33;2.50;;;;;;;;;;5106588;28;20615;-43
2021/03/14 07:14:41;;;;;;;4.53;2.57;;;;;;;;;;5094147;28;20626;-43
2021/03/14 07:17:07;;;;;;;4.07;3.10;;;;;;;;;;5105382;28;20649;-43
2021/03/14 07:19:32;;;;;;;3.23;2.80;;;;;;;;;;5102440;28;20181;-43
2021/03/14 07:21:58;;;;;;;3.17;2.77;;;;;;;;;;5108833;28;21005;-43
2021/03/14 07:24:30;;;;;;;3.93;3.30;;;;;;;;;;5109056;28;20170;-43
2021/03/14 07:26:56;;;;;;;3.77;3.40;;;;;;;;;;5108512;28;20597;-41
2021/03/14 07:29:23;;;;;;;3.20;2.90;;;;;;;;;;5107176;28;20589;-44
2021/03/14 07:31:48;;;;;;;2.93;2.77;;;;;;;;;;5098220;28;20692;-42
2021/03/14 07:34:13;;;;;;;5.03;3.03;;;;;;;;;;5108035;28;20681;-42
2021/03/14 07:36:39;;;;;;;3.23;2.87;;;;;;;;;;5108950;28;20216;-42
2021/03/14 07:39:04;;;;;;;6.23;3.30;;;;;;;;;;5108073;28;20179;-43
2021/03/14 07:41:31;;;;;;;5.33;3.23;;;;;;;;;;5105687;28;20212;-43
2021/03/14 07:43:56;;;;;;;3.17;2.60;;;;;;;;;;5108255;28;20161;-42
2021/03/14 07:46:24;;;;;;;3.30;3.03;;;;;;;;;;5104287;28;20630;-43
2021/03/14 07:48:50;;;;;;;3.10;2.80;;;;;;;;;;5106304;28;20595;-42
2021/03/14 07:51:16;;;;;;;3.43;2.97;;;;;;;;;;5108478;28;20574;-43
2021/03/14 07:53:41;;;;;;;3.43;3.13;;;;;;;;;;5106891;28;20671;-43
2021/03/14 07:56:06;;;;;;;3.10;2.90;;;;;;;;;;5107905;28;20591;-43
2021/03/14 07:58:34;;;;;;;4.93;3.63;;;;;;;;;;5107740;28;20219;-42
2021/03/14 08:01:20;;;;;;;3.00;2.70;;;;;;;;;;5102971;28;20541;-42
2021/03/14 08:03:46;;;;;;;3.53;2.93;;;;;;;;;;5101277;28;20614;-44
2021/03/14 08:06:11;;;;;;;4.20;3.27;;;;;;;;;;5103244;28;20609;-42
2021/03/14 08:08:36;;;;;;;3.00;2.80;;;;;;;;;;5104775;28;20177;-42
2021/03/14 08:11:01;;;;;;;3.57;3.27;;;;;;;;;;5104066;28;20189;-43
2021/03/14 08:13:29;;;;;;;3.10;2.87;;;;;;;;;;5104954;28;20181;-43
2021/03/14 08:15:58;;;;;;;3.57;3.27;;;;;;;;;;5102601;28;20174;-41
2021/03/14 08:18:33;;;;;;;4.50;2.70;;;;;;;;;;5108799;28;21367;-42
2021/03/14 08:20:58;;;;;;;3.40;3.10;;;;;;;;;;5113686;27;20625;-42
2021/03/14 08:23:39;;;;;;;3.17;2.97;;;;;;;;;;5109761;28;20643;-43
2021/03/14 08:26:14;;;;;;;3.60;3.30;;;;;;;;;;5111047;28;20177;-43
2021/03/14 08:28:39;;;;;;;3.50;2.80;;;;;;;;;;5111344;28;20591;-42
2021/03/14 08:31:05;;;;;;;3.55;2.90;;;;;;;;;;5110645;28;21148;-42
2021/03/14 08:33:32;;;;;;;2.93;2.73;;;;;;;;;;5111848;28;20704;-42
2021/03/14 08:36:04;;;;;;;3.37;3.07;;;;;;;;;;5111889;28;20173;-42
2021/03/14 08:38:43;;;;;;;3.27;2.97;;;;;;;;;;5111533;28;20582;-41
2021/03/14 08:41:18;;;;;;;4.53;2.90;;;;;;;;;;5110754;28;20630;-41
2021/03/14 08:43:43;;;;;;;3.43;3.13;;;;;;;;;;5111290;28;20603;-41
2021/03/14 08:46:09;;;;;;;4.13;3.10;;;;;;;;;;5111764;28;20582;-42
2021/03/14 08:48:34;;;;;;;3.60;3.30;;;;;;;;;;5106110;28;20239;-42
2021/03/14 08:51:00;;;;;;;3.27;2.83;;;;;;;;;;5104468;28;20163;-42
2021/03/14 08:53:25;;;;;;;3.20;2.87;;;;;;;;;;5110752;28;20587;-43
2021/03/14 08:55:50;;;;;;;3.43;3.13;;;;;;;;;;5111002;28;20184;-42
2021/03/14 08:58:16;;;;;;;4.38;2.95;;;;;;;;;;5110860;28;20166;-41
2021/03/14 09:00:41;;;;;;;3.50;3.30;;;;;;;;;;5110790;28;20174;-42
2021/03/14 09:03:06;;;;;;;2.87;2.70;;;;;;;;;;5110370;28;20206;-42
2021/03/14 09:05:50;;;;;;;4.83;3.13;;;;;;;;;;5110793;28;20168;-43
2021/03/14 09:08:15;;;;;;;3.10;2.90;;;;;;;;;;5111117;28;20266;-43
2021/03/14 09:10:40;;;;;;;3.30;3.10;;;;;;;;;;5110923;28;20659;-43
2021/03/14 09:13:05;;;;;;;3.87;3.30;;;;;;;;;;5109103;28;20590;-43
2021/03/14 09:15:31;;;;;;;4.25;3.85;;;;;;;;;;5110412;28;20604;-42
2021/03/14 09:17:59;;;;;;;4.30;3.77;;;;;;;;;;5109817;28;20623;-42
2021/03/14 09:20:24;;;;;;;3.90;3.60;;;;;;;;;;5110274;28;20174;-41
2021/03/14 09:22:50;;;;;;;4.23;3.93;;;;;;;;;;5110609;28;20645;-42
2021/03/14 09:25:15;;;;;;;4.70;4.30;;;;;;;;;;5110381;28;20703;-41
2021/03/14 09:27:42;;;;;;;4.93;4.17;;;;;;;;;;5110045;28;20170;-41
2021/03/14 09:30:07;;;;;;;4.63;4.20;;;;;;;;;;5109423;28;20164;-42
2021/03/14 09:32:36;;;;;;;4.87;4.37;;;;;;;;;;5110589;28;20585;-41
2021/03/14 09:35:11;;;;;;;4.00;3.70;;;;;;;;;;5109788;28;20310;-42
2021/03/14 09:37:36;;;;;;;5.37;4.70;;;;;;;;;;5109834;28;20942;-43
2021/03/14 09:40:10;;;;;;;5.13;4.33;;;;;;;;;;5110253;28;20691;-42
2021/03/14 09:42:36;;;;;;;5.37;4.67;;;;;;;;;;5108954;28;20201;-42
2021/03/14 09:45:03;;;;;;;7.17;5.83;;;;;;;;;;5110335;28;20583;-41
2021/03/14 09:47:28;;;;;;;8.23;7.00;;;;;;;;;;5110214;28;20306;-42
2021/03/14 09:50:00;;;;;;;7.97;6.70;;;;;;;;;;5110095;28;20846;-42
2021/03/14 09:52:25;;;;;;;7.53;6.27;;;;;;;;;;5109888;28;20685;-42
2021/03/14 09:54:50;;;;;;;5.70;4.70;;;;;;;;;;5109761;28;20800;-42
2021/03/14 09:57:19;;;;;;;9.00;7.07;;;;;;;;;;5109959;28;20173;-41
2021/03/14 09:59:45;;;;;;;10.20;8.07;;;;;;;;;;5110203;28;20183;-42
2021/03/14 10:02:10;;;;;;;10.30;7.73;;;;;;;;;;5109697;28;20968;-43
2021/03/14 10:04:46;;;;;;;5.47;5.00;;;;;;;;;;5109308;28;20549;-43
2021/03/14 10:07:21;;;;;;;3.90;3.50;;;;;;;;;;5108500;28;20166;-42
2021/03/14 10:09:46;;;;;;;6.30;4.63;;;;;;;;;;5110533;28;20582;-43
2021/03/14 10:12:11;;;;;;;5.03;4.63;;;;;;;;;;5109654;28;20710;-43
2021/03/14 10:14:36;;;;;;;5.10;4.70;;;;;;;;;;5109868;28;20242;-43
2021/03/14 10:17:02;;;;;;;5.37;4.90;;;;;;;;;;5109283;28;20344;-42
2021/03/14 10:19:27;;;;;;;5.03;4.63;;;;;;;;;;5109601;28;20176;-42
2021/03/14 10:21:52;;;;;;;4.83;4.43;;;;;;;;;;5109745;28;20224;-42
2021/03/14 10:24:24;;;;;;;6.25;5.75;;;;;;;;;;5109958;28;20192;-43
2021/03/14 10:26:56;;;;;;;9.83;8.83;;;;;;;;;;5109163;28;20505;-42
2021/03/14 10:29:29;;;;;;;6.57;5.73;;;;;;;;;;5109309;28;20607;-42
2021/03/14 10:31:54;;;;;;;9.23;8.13;;;;;;;;;;5109450;28;20601;-43
2021/03/14 10:34:20;;;;;;;7.83;5.80;;;;;;;;;;5109555;28;21008;-42
2021/03/14 10:36:46;;;;;;;6.33;5.83;;;;;;;;;;5108348;28;20172;-44
2021/03/14 10:39:11;;;;;;;5.30;4.90;;;;;;;;;;5109181;28;20667;-42
2021/03/14 10:41:40;;;;;;;5.73;5.13;;;;;;;;;;5108867;27;20196;-42
2021/03/14 10:44:05;;;;;;;6.50;5.10;;;;;;;;;;5089256;28;20176;-42
2021/03/14 10:46:38;;;;;;;5.27;4.70;;;;;;;;;;5088758;28;20671;-42
2021/03/14 10:49:04;;;;;;;5.63;5.00;;;;;;;;;;5104633;28;20235;-42
2021/03/14 10:51:30;;;;;;;5.10;4.47;;;;;;;;;;5109205;28;21433;-42
2021/03/14 10:54:06;;;;;;;4.90;4.50;;;;;;;;;;5107339;28;20650;-42
2021/03/14 10:56:32;;;;;;;4.93;4.53;;;;;;;;;;5091786;28;20692;-41
2021/03/14 10:58:57;;;;;;;4.60;4.23;;;;;;;;;;5101832;28;20589;-41
2021/03/14 11:01:40;;;;;;;5.00;4.50;;;;;;;;;;5106280;28;20591;-41
2021/03/14 11:04:06;;;;;;;4.80;4.40;;;;;;;;;;5108892;28;20169;-42
2021/03/14 11:06:31;;;;;;;5.10;4.70;;;;;;;;;;5107701;28;20581;-41
2021/03/14 11:09:04;;;;;;;5.07;4.53;;;;;;;;;;5108849;28;20677;-42
2021/03/14 11:11:36;;;;;;;5.43;4.67;;;;;;;;;;5108420;28;20163;-42
2021/03/14 11:14:21;;;;;;;6.27;5.17;;;;;;;;;;5108210;28;20590;-42
2021/03/14 11:16:47;;;;;;;6.07;4.77;;;;;;;;;;5107980;28;20957;-42
2021/03/14 11:19:12;;;;;;;5.97;5.37;;;;;;;;;;5107907;28;20573;-42
2021/03/14 11:21:37;;;;;;;4.65;4.32;;;;;;;;;;5108927;28;20257;-43
2021/03/14 11:24:02;;;;;;;7.23;5.17;;;;;;;;;;5108810;28;20317;-43
2021/03/14 11:26:28;;;;;;;5.47;5.07;;;;;;;;;;5107936;28;20168;-43
2021/03/14 11:28:53;;;;;;;5.33;4.83;;;;;;;;;;5108680;28;20183;-42
2021/03/14 11:31:18;;;;;;;5.93;5.10;;;;;;;;;;5107775;28;20652;-42
2021/03/14 11:33:43;;;;;;;6.17;5.17;;;;;;;;;;5108463;28;20179;-43
2021/03/14 11:36:08;;;;;;;5.70;5.20;;;;;;;;;;5108462;28;20164;-43
2021/03/14 11:38:33;;;;;;;5.37;4.77;;;;;;;;;;5108291;28;20169;-44
2021/03/14 11:40:59;;;;;;;6.03;5.50;;;;;;;;;;5107294;28;20184;-42
2021/03/14 11:43:24;;;;;;;7.30;5.10;;;;;;;;;;5107005;28;20738;-42
2021/03/14 11:45:51;;;;;;;6.33;5.53;;;;;;;;;;5108021;28;20179;-42
2021/03/14 11:48:16;;;;;;;5.67;5.27;;;;;;;;;;5107523;28;20249;-43
2021/03/14 11:50:41;;;;;;;5.87;5.33;;;;;;;;;;5107802;28;20725;-43
2021/03/14 11:53:06;;;;;;;5.33;4.90;;;;;;;;;;5108470;28;20652;-41
2021/03/14 11:55:32;;;;;;;6.07;5.57;;;;;;;;;;5111655;28;20283;-42
2021/03/14 11:57:58;;;;;;;5.97;5.47;;;;;;;;;;5107865;27;20696;-43
2021/03/14 12:00:23;;;;;;;5.03;4.53;;;;;;;;;;5110678;27;20181;-44
2021/03/14 12:02:48;;;;;;;5.00;4.70;;;;;;;;;;5104155;28;20640;-43
2021/03/14 12:05:14;;;;;;;5.57;4.80;;;;;;;;;;5104645;28;20249;-45
2021/03/14 12:07:40;;;;;;;5.03;4.63;;;;;;;;;;5107519;28;20167;-43
2021/03/14 12:10:05;;;;;;;4.80;4.40;;;;;;;;;;5111595;28;20611;-42
2021/03/14 12:12:31;;;;;;;5.57;4.70;;;;;;;;;;5111545;28;20185;-41
2021/03/14 12:14:56;;;;;;;4.60;4.23;;;;;;;;;;5111511;28;20163;-42
2021/03/14 12:17:22;;;;;;;5.00;4.60;;;;;;;;;;5111290;28;20181;-42
2021/03/14 12:19:47;;;;;;;5.10;4.70;;;;;;;;;;5110877;28;20649;-41
2021/03/14 12:22:12;;;;;;;4.30;4.00;;;;;;;;;;5111914;28;20717;-41
2021/03/14 12:24:38;;;;;;;6.43;3.90;;;;;;;;;;5111394;28;20395;-41
2021/03/14 12:27:04;;;;;;;5.37;4.40;;;;;;;;;;5110116;28;20178;-42
2021/03/14 12:29:29;;;;;;;4.60;4.30;;;;;;;;;;5111350;28;20599;-42
2021/03/14 12:31:54;;;;;;;4.20;3.80;;;;;;;;;;5111161;28;20199;-43
2021/03/14 12:34:19;;;;;;;3.73;3.43;;;;;;;;;;5109992;28;20681;-43
2021/03/14 12:36:45;;;;;;;4.73;4.33;;;;;;;;;;5108167;27;20180;-44
2021/03/14 12:39:10;;;;;;;5.23;4.73;;;;;;;;;;5107563;28;20663;-43
2021/03/14 12:41:35;;;;;;;5.83;5.20;;;;;;;;;;5108988;27;20201;-43
2021/03/14 12:44:00;;;;;;;5.03;4.63;;;;;;;;;;5111229;28;20180;-43
2021/03/14 12:46:25;;;;;;;5.37;4.93;;;;;;;;;;5112107;27;20371;-44
2021/03/14 12:48:51;;;;;;;6.87;5.87;;;;;;;;;;5115165;27;20253;-42
2021/03/14 12:51:16;;;;;;;6.07;5.57;;;;;;;;;;5110506;27;20174;-42
2021/03/14 12:53:41;;;;;;;6.17;5.60;;;;;;;;;;5108288;28;20230;-42
2021/03/14 12:56:06;;;;;;;6.07;5.47;;;;;;;;;;5107887;27;20257;-42
2021/03/14 12:58:31;;;;;;;6.10;5.60;;;;;;;;;;5107421;28;20178;-40
2021/03/14 13:00:57;;;;;;;6.27;5.67;;;;;;;;;;5107375;27;20227;-42
2021/03/14 13:03:22;;;;;;;6.53;6.03;;;;;;;;;;5106947;28;20703;-41
2021/03/14 13:05:47;;;;;;;8.10;6.40;;;;;;;;;;5107531;28;20664;-41
2021/03/14 13:08:12;;;;;;;7.55;6.28;;;;;;;;;;5107616;28;20181;-42
2021/03/14 13:10:37;;;;;;;9.63;7.13;;;;;;;;;;5108112;28;20286;-42
2021/03/14 13:13:04;;;;;;;14.03;11.63;;;;;;;;;;5114093;27;20213;-44
2021/03/14 13:15:29;;;;;;;6.53;6.03;;;;;;;;;;5111509;27;20167;-42
2021/03/14 13:17:54;;;;;;;7.03;5.70;;;;;;;;;;5107215;28;20612;-41
2021/03/14 13:20:20;;;;;;;6.80;6.20;;;;;;;;;;5106509;28;20203;-43
2021/03/14 13:22:45;;;;;;;6.80;6.30;;;;;;;;;;5100351;28;20198;-43
2021/03/14 13:25:11;;;;;;;10.97;8.63;;;;;;;;;;5102633;28;20528;-43
2021/03/14 13:27:36;;;;;;;8.07;7.20;;;;;;;;;;5104474;28;20258;-43
2021/03/14 13:30:02;;;;;;;8.60;5.43;;;;;;;;;;5107678;28;20642;-41
2021/03/14 13:32:27;;;;;;;5.70;5.20;;;;;;;;;;5107439;28;20962;-43
2021/03/14 13:34:52;;;;;;;7.43;6.63;;;;;;;;;;5104937;28;20976;-43
2021/03/14 13:37:18;;;;;;;6.37;5.80;;;;;;;;;;5103582;27;20658;-43
2021/03/14 13:39:43;;;;;;;6.70;6.10;;;;;;;;;;5103623;28;20199;-43
2021/03/14 13:42:08;;;;;;;7.60;5.10;;;;;;;;;;5101265;28;20663;-43
2021/03/14 13:44:33;;;;;;;5.80;5.27;;;;;;;;;;5100011;28;20179;-42
2021/03/14 13:46:58;;;;;;;5.70;4.93;;;;;;;;;;5101178;28;20924;-42
2021/03/14 13:49:24;;;;;;;6.03;5.43;;;;;;;;;;5104707;28;20271;-42
2021/03/14 13:51:49;;;;;;;5.90;5.40;;;;;;;;;;5106307;28;20190;-42
2021/03/14 13:54:14;;;;;;;6.37;5.87;;;;;;;;;;5106146;28;20909;-41
2021/03/14 13:56:39;;;;;;;7.00;5.90;;;;;;;;;;5105701;27;20185;-42
2021/03/14 13:59:05;;;;;;;6.53;5.93;;;;;;;;;;5101433;28;20515;-42
2021/03/14 14:01:30;;;;;;;7.20;6.47;;;;;;;;;;5102836;27;20570;-43
2021/03/14 14:03:55;;;;;;;6.33;5.70;;;;;;;;;;5104027;27;20559;-42
2021/03/14 14:06:20;;;;;;;8.47;6.10;;;;;;;;;;5104837;28;20204;-45
2021/03/14 14:08:45;;;;;;;6.40;5.90;;;;;;;;;;5105603;28;20259;-43
2021/03/14 14:11:10;;;;;;;7.40;6.23;;;;;;;;;;5104374;28;20252;-42
2021/03/14 14:13:36;;;;;;;6.50;5.90;;;;;;;;;;5105751;27;20259;-41
2021/03/14 14:16:01;;;;;;;7.90;6.70;;;;;;;;;;5101521;28;20174;-41
2021/03/14 14:18:27;;;;;;;6.63;6.03;;;;;;;;;;5102284;28;20174;-42
2021/03/14 14:20:52;;;;;;;7.10;6.40;;;;;;;;;;5106432;28;20192;-41
2021/03/14 14:23:18;;;;;;;7.23;6.53;;;;;;;;;;5104365;27;20239;-43
2021/03/14 14:25:44;;;;;;;5.80;5.40;;;;;;;;;;5099206;27;20181;-41
2021/03/14 14:28:09;;;;;;;6.20;5.70;;;;;;;;;;5104842;28;20202;-41
2021/03/14 14:30:34;;;;;;;6.00;5.50;;;;;;;;;;5097706;28;20194;-42
2021/03/14 14:32:59;;;;;;;6.03;5.53;;;;;;;;;;5097620;28;20931;-42
2021/03/14 14:35:25;;;;;;;6.57;5.87;;;;;;;;;;5106533;28;20181;-43
2021/03/14 14:37:51;;;;;;;6.60;6.10;;;;;;;;;;5105533;28;20319;-42
2021/03/14 14:40:16;;;;;;;6.87;6.33;;;;;;;;;;5106417;28;20205;-42